Time;durP1;ratioP1;P1;durP2;ratioP2;P2;SDS_P1;SDS_P2;PMS_P1;PMS_P2;Temp;Humidity;BMP_temperature;BMP_pressure;BME280_temperature;BME280_humidity;BME280_pressure;Samples;Min_cycle;Max_cycle;Signal;HPM_P1;HPM_P2
2021/05/15 00:01:12;;;;;;;3.15;2.00;;;;;;;;;;4925572;28;20074;-89
2021/05/15 00:03:39;;;;;;;3.70;2.25;;;;;;;;;;4929684;28;21007;-90
2021/05/15 00:06:06;;;;;;;3.22;2.20;;;;;;;;;;4938047;28;20035;-90
2021/05/15 00:08:32;;;;;;;2.72;1.90;;;;;;;;;;4938708;28;20055;-90
2021/05/15 00:10:59;;;;;;;3.65;2.10;;;;;;;;;;4926337;28;20460;-89
2021/05/15 00:13:26;;;;;;;3.95;2.20;;;;;;;;;;4933675;28;20062;-89
2021/05/15 00:15:52;;;;;;;3.55;2.30;;;;;;;;;;4929101;28;20028;-89
2021/05/15 00:18:19;;;;;;;4.43;2.05;;;;;;;;;;4945454;28;20497;-88
2021/05/15 00:20:46;;;;;;;3.28;2.30;;;;;;;;;;4932082;28;20515;-89
2021/05/15 00:23:12;;;;;;;4.55;2.20;;;;;;;;;;4943056;28;20095;-88
2021/05/15 00:25:38;;;;;;;3.58;2.13;;;;;;;;;;4934358;28;21147;-88
2021/05/15 00:28:05;;;;;;;4.13;2.28;;;;;;;;;;4892843;28;20051;-88
2021/05/15 00:30:31;;;;;;;3.63;2.20;;;;;;;;;;4914472;28;20028;-89
2021/05/15 00:32:58;;;;;;;3.17;2.45;;;;;;;;;;4926846;28;20032;-90
2021/05/15 00:35:25;;;;;;;3.80;2.42;;;;;;;;;;4916607;28;20468;-89
2021/05/15 00:37:52;;;;;;;3.25;2.50;;;;;;;;;;4930878;28;20147;-89
2021/05/15 00:40:19;;;;;;;4.55;2.28;;;;;;;;;;4940776;28;20056;-89
2021/05/15 00:42:47;;;;;;;2.67;2.10;;;;;;;;;;4923339;28;20043;-89
2021/05/15 00:45:16;;;;;;;3.83;2.40;;;;;;;;;;4927373;28;20078;-89
2021/05/15 00:47:43;;;;;;;5.10;2.40;;;;;;;;;;4922223;28;20032;-89
2021/05/15 00:50:10;;;;;;;3.47;2.53;;;;;;;;;;4929619;28;20042;-89
2021/05/15 00:52:36;;;;;;;4.03;2.80;;;;;;;;;;4934599;28;20059;-89
2021/05/15 00:55:10;;;;;;;3.67;2.47;;;;;;;;;;4947151;28;20039;-89
2021/05/15 00:57:38;;;;;;;3.28;2.50;;;;;;;;;;4924458;28;20123;-89
2021/05/15 01:00:06;;;;;;;3.60;2.30;;;;;;;;;;4931982;28;20504;-90
2021/05/15 01:02:33;;;;;;;3.72;2.55;;;;;;;;;;4924729;28;20067;-89
2021/05/15 01:04:59;;;;;;;3.40;2.58;;;;;;;;;;4906164;29;20063;-89
2021/05/15 01:07:26;;;;;;;3.72;2.45;;;;;;;;;;4921990;28;20163;-90
2021/05/15 01:09:52;;;;;;;3.17;2.50;;;;;;;;;;4935355;28;20032;-90
2021/05/15 01:12:19;;;;;;;4.60;2.58;;;;;;;;;;4929437;28;20086;-87
2021/05/15 01:14:45;;;;;;;4.00;2.72;;;;;;;;;;4925852;28;20690;-90
2021/05/15 01:17:15;;;;;;;3.92;2.58;;;;;;;;;;4924091;28;20031;-90
2021/05/15 01:19:41;;;;;;;3.17;2.47;;;;;;;;;;4925059;28;20070;-90
2021/05/15 01:22:09;;;;;;;3.47;2.55;;;;;;;;;;4941856;28;20044;-90
2021/05/15 01:24:35;;;;;;;3.65;2.45;;;;;;;;;;4901398;28;20361;-91
2021/05/15 01:27:06;;;;;;;4.63;2.72;;;;;;;;;;4923530;29;20114;-90
2021/05/15 01:29:32;;;;;;;4.25;2.92;;;;;;;;;;4927609;28;20071;-91
2021/05/15 01:31:59;;;;;;;5.38;2.88;;;;;;;;;;4935360;28;20087;-90
2021/05/15 01:34:25;;;;;;;4.35;2.78;;;;;;;;;;4922598;28;20059;-91
2021/05/15 01:36:52;;;;;;;4.40;2.60;;;;;;;;;;4935309;28;20561;-91
2021/05/15 01:39:19;;;;;;;3.40;2.67;;;;;;;;;;4934931;28;20039;-91
2021/05/15 01:41:45;;;;;;;3.33;2.55;;;;;;;;;;4915594;28;21339;-91
2021/05/15 01:44:12;;;;;;;3.20;2.28;;;;;;;;;;4922390;28;20103;-90
2021/05/15 01:46:39;;;;;;;3.72;2.50;;;;;;;;;;4924412;28;20531;-90
2021/05/15 01:49:06;;;;;;;3.70;2.72;;;;;;;;;;4923481;28;20063;-90
2021/05/15 01:51:33;;;;;;;4.82;2.70;;;;;;;;;;4935661;28;20024;-91
2021/05/15 01:53:59;;;;;;;4.95;2.80;;;;;;;;;;4927716;28;20043;-91
2021/05/15 01:56:30;;;;;;;3.42;2.60;;;;;;;;;;4919390;28;20080;-90
2021/05/15 01:58:56;;;;;;;2.90;2.40;;;;;;;;;;4919263;28;20142;-90
2021/05/15 02:01:24;;;;;;;4.38;2.90;;;;;;;;;;4926184;28;20583;-90
2021/05/15 02:03:51;;;;;;;3.60;2.70;;;;;;;;;;4928639;28;20123;-90
2021/05/15 02:06:18;;;;;;;4.95;2.72;;;;;;;;;;4922269;28;20056;-90
2021/05/15 02:08:48;;;;;;;4.82;2.67;;;;;;;;;;4925349;28;20932;-90
2021/05/15 02:11:19;;;;;;;4.35;2.60;;;;;;;;;;4933179;28;20139;-90
2021/05/15 02:13:46;;;;;;;3.55;2.20;;;;;;;;;;4928243;28;20526;-89
2021/05/15 02:16:13;;;;;;;4.03;2.20;;;;;;;;;;4927058;28;20039;-89
2021/05/15 02:18:40;;;;;;;3.60;2.75;;;;;;;;;;4912707;28;20112;-89
2021/05/15 02:21:06;;;;;;;4.47;2.55;;;;;;;;;;4923125;28;20033;-89
2021/05/15 02:23:33;;;;;;;4.03;2.72;;;;;;;;;;4930323;28;20050;-90
2021/05/15 02:26:00;;;;;;;3.92;2.30;;;;;;;;;;4936980;28;20040;-90
2021/05/15 02:28:26;;;;;;;4.45;2.53;;;;;;;;;;4927426;28;20063;-89
2021/05/15 02:30:53;;;;;;;4.05;2.75;;;;;;;;;;4926882;29;20031;-90
2021/05/15 02:33:20;;;;;;;3.28;2.63;;;;;;;;;;4925332;28;20437;-89
2021/05/15 02:35:46;;;;;;;4.40;2.63;;;;;;;;;;4919698;28;20101;-90
2021/05/15 02:38:14;;;;;;;3.78;2.70;;;;;;;;;;4941403;28;20712;-91
2021/05/15 02:40:41;;;;;;;2.95;2.45;;;;;;;;;;4921878;28;20056;-91
2021/05/15 02:43:07;;;;;;;4.93;2.90;;;;;;;;;;4934458;28;20044;-90
2021/05/15 02:45:34;;;;;;;3.08;2.30;;;;;;;;;;4933741;28;20609;-90
2021/05/15 02:48:01;;;;;;;4.15;2.40;;;;;;;;;;4938300;28;20624;-89
2021/05/15 02:50:28;;;;;;;3.80;2.88;;;;;;;;;;4939557;28;20059;-90
2021/05/15 02:52:54;;;;;;;4.10;2.65;;;;;;;;;;4941100;28;20059;-90
2021/05/15 02:55:23;;;;;;;3.40;2.38;;;;;;;;;;4937457;28;20085;-89
2021/05/15 02:57:50;;;;;;;4.55;2.95;;;;;;;;;;4917246;29;20095;-89
2021/05/15 03:00:18;;;;;;;3.85;2.90;;;;;;;;;;4928095;28;20083;-89
2021/05/15 03:02:45;;;;;;;3.65;2.65;;;;;;;;;;4926017;28;20822;-90
2021/05/15 03:05:14;;;;;;;3.88;2.70;;;;;;;;;;4922312;28;20451;-90
2021/05/15 03:07:40;;;;;;;4.30;2.90;;;;;;;;;;4945534;28;20078;-86
2021/05/15 03:10:07;;;;;;;5.43;2.70;;;;;;;;;;4939169;28;20036;-89
2021/05/15 03:12:34;;;;;;;3.40;2.50;;;;;;;;;;4951399;28;20046;-88
2021/05/15 03:15:01;;;;;;;4.57;2.97;;;;;;;;;;4942546;28;20067;-89
2021/05/15 03:17:27;;;;;;;4.13;2.83;;;;;;;;;;4940391;28;20705;-90
2021/05/15 03:19:53;;;;;;;5.65;3.00;;;;;;;;;;4920964;28;20087;-89
2021/05/15 03:22:21;;;;;;;6.22;2.60;;;;;;;;;;4935763;28;20039;-87
2021/05/15 03:24:53;;;;;;;4.45;2.40;;;;;;;;;;4926866;28;20076;-89
2021/05/15 03:27:19;;;;;;;4.75;2.78;;;;;;;;;;4936342;28;20593;-89
2021/05/15 03:29:46;;;;;;;3.65;2.90;;;;;;;;;;4910038;28;20071;-89
2021/05/15 03:32:13;;;;;;;3.88;2.72;;;;;;;;;;4924234;28;20119;-89
2021/05/15 03:34:40;;;;;;;6.22;2.60;;;;;;;;;;4929089;28;20040;-91
2021/05/15 03:37:06;;;;;;;4.07;2.60;;;;;;;;;;4927345;28;20157;-90
2021/05/15 03:39:32;;;;;;;3.92;2.80;;;;;;;;;;4915735;28;20064;-90
2021/05/15 03:41:59;;;;;;;4.20;2.63;;;;;;;;;;4936937;28;20527;-90
2021/05/15 03:44:25;;;;;;;5.03;2.70;;;;;;;;;;4924924;28;20071;-89
2021/05/15 03:46:52;;;;;;;4.07;2.67;;;;;;;;;;4928340;28;20046;-89
2021/05/15 03:49:19;;;;;;;4.57;2.80;;;;;;;;;;4933762;28;20063;-89
2021/05/15 03:51:46;;;;;;;4.10;2.75;;;;;;;;;;4926954;28;20055;-89
2021/05/15 03:54:12;;;;;;;3.50;2.53;;;;;;;;;;4930580;28;20070;-89
2021/05/15 03:56:38;;;;;;;3.85;2.70;;;;;;;;;;4919831;28;20559;-90
2021/05/15 03:59:05;;;;;;;3.60;2.53;;;;;;;;;;4914192;29;20714;-89
2021/05/15 04:01:32;;;;;;;4.55;2.67;;;;;;;;;;4925283;28;20055;-89
2021/05/15 04:03:58;;;;;;;4.00;2.92;;;;;;;;;;4939081;28;20068;-90
2021/05/15 04:06:25;;;;;;;4.95;2.85;;;;;;;;;;4924711;28;20527;-90
2021/05/15 04:08:51;;;;;;;4.68;2.83;;;;;;;;;;4932577;28;20075;-90
2021/05/15 04:11:18;;;;;;;5.50;2.85;;;;;;;;;;4924134;28;20040;-90
2021/05/15 04:16:26;;;;;;;5.05;2.60;;;;;;;;;;4930449;28;20035;-90
2021/05/15 04:18:53;;;;;;;4.75;2.78;;;;;;;;;;4929444;28;20035;-90
2021/05/15 04:21:21;;;;;;;4.28;2.92;;;;;;;;;;4926053;28;20036;-89
2021/05/15 04:23:47;;;;;;;6.68;2.78;;;;;;;;;;4918029;28;20067;-89
2021/05/15 04:26:14;;;;;;;4.43;2.70;;;;;;;;;;4928350;28;20052;-89
2021/05/15 04:28:40;;;;;;;4.32;2.88;;;;;;;;;;4935844;28;20037;-90
2021/05/15 04:31:07;;;;;;;3.72;2.97;;;;;;;;;;4936970;28;20058;-90
2021/05/15 04:33:33;;;;;;;4.85;2.90;;;;;;;;;;4928157;28;20167;-90
2021/05/15 04:36:00;;;;;;;6.30;2.65;;;;;;;;;;4931069;28;20036;-89
2021/05/15 04:38:27;;;;;;;4.13;2.53;;;;;;;;;;4941654;28;20052;-89
2021/05/15 04:40:54;;;;;;;4.95;2.92;;;;;;;;;;4940254;28;20044;-90
2021/05/15 04:43:20;;;;;;;4.45;2.40;;;;;;;;;;4940955;28;20036;-87
2021/05/15 04:45:47;;;;;;;4.32;2.58;;;;;;;;;;4951004;28;20040;-90
2021/05/15 04:48:13;;;;;;;3.78;2.70;;;;;;;;;;4936125;28;20036;-91
2021/05/15 04:50:40;;;;;;;3.13;2.35;;;;;;;;;;4933900;28;20043;-91
2021/05/15 04:53:07;;;;;;;4.95;2.78;;;;;;;;;;4949190;28;20035;-90
2021/05/15 04:55:33;;;;;;;4.35;2.58;;;;;;;;;;4925547;28;20748;-90
2021/05/15 04:58:00;;;;;;;4.25;2.70;;;;;;;;;;4928477;28;20028;-89
2021/05/15 05:00:27;;;;;;;4.97;2.78;;;;;;;;;;4909934;28;20047;-90
2021/05/15 05:02:54;;;;;;;3.85;2.40;;;;;;;;;;4925876;29;20059;-90
2021/05/15 05:05:21;;;;;;;3.58;2.63;;;;;;;;;;4938633;28;20099;-85
2021/05/15 05:07:48;;;;;;;3.33;2.45;;;;;;;;;;4940851;28;20432;-90
2021/05/15 05:10:14;;;;;;;3.70;2.40;;;;;;;;;;4928973;28;20028;-90
2021/05/15 05:12:41;;;;;;;5.30;2.40;;;;;;;;;;4933025;28;20067;-89
2021/05/15 05:15:07;;;;;;;3.88;2.35;;;;;;;;;;4914675;29;20078;-90
2021/05/15 05:17:34;;;;;;;3.58;2.80;;;;;;;;;;4905350;28;20032;-90
2021/05/15 05:20:00;;;;;;;4.47;2.40;;;;;;;;;;4937091;28;20040;-89
2021/05/15 05:22:28;;;;;;;3.80;2.40;;;;;;;;;;4934108;28;20032;-90
2021/05/15 05:24:55;;;;;;;3.47;2.42;;;;;;;;;;4899647;29;20127;-90
2021/05/15 05:27:22;;;;;;;4.82;2.67;;;;;;;;;;4941127;28;20055;-89
2021/05/15 05:29:49;;;;;;;4.07;2.67;;;;;;;;;;4919544;29;20063;-89
2021/05/15 05:32:15;;;;;;;4.28;2.33;;;;;;;;;;4938774;28;20079;-90
2021/05/15 05:34:43;;;;;;;5.43;2.88;;;;;;;;;;4910935;28;20077;-90
2021/05/15 05:37:09;;;;;;;4.03;2.35;;;;;;;;;;4913061;29;20042;-90
2021/05/15 05:39:37;;;;;;;4.65;2.50;;;;;;;;;;4920592;28;20074;-90
2021/05/15 05:42:04;;;;;;;4.97;2.60;;;;;;;;;;4947632;28;20114;-90
2021/05/15 05:44:30;;;;;;;5.03;2.50;;;;;;;;;;4925633;28;20134;-90
2021/05/15 05:46:57;;;;;;;5.03;2.70;;;;;;;;;;4928547;28;20460;-89
2021/05/15 05:49:24;;;;;;;4.38;2.75;;;;;;;;;;4931150;28;20040;-90
2021/05/15 05:51:50;;;;;;;4.40;2.50;;;;;;;;;;4923594;28;20599;-88
2021/05/15 05:54:17;;;;;;;4.68;2.40;;;;;;;;;;4937186;28;20535;-89
2021/05/15 05:56:43;;;;;;;3.65;2.30;;;;;;;;;;4920187;28;20038;-89
2021/05/15 05:59:10;;;;;;;4.53;2.40;;;;;;;;;;4924037;28;20077;-89
2021/05/15 06:01:38;;;;;;;2.92;2.15;;;;;;;;;;4935220;28;20103;-89
2021/05/15 06:04:04;;;;;;;4.13;2.30;;;;;;;;;;4920741;28;20039;-89
2021/05/15 06:06:31;;;;;;;3.33;2.50;;;;;;;;;;4942001;28;20044;-89
2021/05/15 06:08:58;;;;;;;4.03;2.70;;;;;;;;;;4904245;29;20031;-89
2021/05/15 06:11:25;;;;;;;4.18;2.60;;;;;;;;;;4915795;28;20060;-89
2021/05/15 06:13:51;;;;;;;3.63;2.38;;;;;;;;;;4937752;28;20031;-88
2021/05/15 06:16:18;;;;;;;3.92;2.53;;;;;;;;;;4918170;28;20028;-88
2021/05/15 06:18:44;;;;;;;3.10;2.28;;;;;;;;;;4939251;28;20036;-89
2021/05/15 06:21:11;;;;;;;2.72;1.95;;;;;;;;;;4944866;28;20071;-89
2021/05/15 06:23:37;;;;;;;3.67;2.45;;;;;;;;;;4931412;28;20489;-90
2021/05/15 06:26:13;;;;;;;3.40;2.20;;;;;;;;;;4934517;28;20068;-90
2021/05/15 06:28:39;;;;;;;3.47;2.40;;;;;;;;;;4951520;28;20068;-89
2021/05/15 06:31:06;;;;;;;2.72;2.28;;;;;;;;;;4952896;28;20043;-89
2021/05/15 06:33:33;;;;;;;4.57;2.60;;;;;;;;;;4934639;28;20031;-90
2021/05/15 06:36:00;;;;;;;3.15;2.38;;;;;;;;;;4952102;28;20582;-89
2021/05/15 06:38:27;;;;;;;3.40;2.30;;;;;;;;;;4933763;28;20479;-89
2021/05/15 06:40:53;;;;;;;4.40;2.30;;;;;;;;;;4950747;28;20032;-89
2021/05/15 06:43:20;;;;;;;2.80;1.98;;;;;;;;;;4911717;29;20040;-89
2021/05/15 06:45:46;;;;;;;4.88;2.33;;;;;;;;;;4916125;28;20812;-89
2021/05/15 06:48:13;;;;;;;4.47;2.20;;;;;;;;;;4911469;29;20046;-89
2021/05/15 06:50:40;;;;;;;3.60;2.33;;;;;;;;;;4921831;28;20692;-89
2021/05/15 06:53:06;;;;;;;3.90;2.10;;;;;;;;;;4942064;28;20066;-88
2021/05/15 06:55:33;;;;;;;4.72;2.30;;;;;;;;;;4939881;28;20031;-91
2021/05/15 06:58:04;;;;;;;3.45;2.10;;;;;;;;;;4927599;28;20135;-89
2021/05/15 07:00:30;;;;;;;4.68;2.40;;;;;;;;;;4941756;28;20043;-89
2021/05/15 07:02:57;;;;;;;3.88;2.38;;;;;;;;;;4923764;28;20154;-89
2021/05/15 07:05:23;;;;;;;3.78;2.00;;;;;;;;;;4947272;28;20064;-89
2021/05/15 07:07:50;;;;;;;4.43;2.38;;;;;;;;;;4936963;28;20063;-89
2021/05/15 07:10:17;;;;;;;3.50;2.30;;;;;;;;;;4933277;28;20082;-89
2021/05/15 07:12:44;;;;;;;3.13;2.13;;;;;;;;;;4933715;28;20039;-89
2021/05/15 07:15:10;;;;;;;4.65;2.30;;;;;;;;;;4909464;29;20863;-89
2021/05/15 07:17:37;;;;;;;3.28;2.17;;;;;;;;;;4927882;28;20044;-89
2021/05/15 07:20:04;;;;;;;3.75;2.40;;;;;;;;;;4931472;28;20389;-88
2021/05/15 07:22:31;;;;;;;4.68;2.00;;;;;;;;;;4926050;28;20052;-89
2021/05/15 07:24:58;;;;;;;3.33;2.10;;;;;;;;;;4935699;28;20067;-88
2021/05/15 07:27:28;;;;;;;4.07;2.00;;;;;;;;;;4937061;28;20063;-89
2021/05/15 07:29:55;;;;;;;2.95;1.95;;;;;;;;;;4902638;29;20087;-89
2021/05/15 07:32:22;;;;;;;4.80;2.20;;;;;;;;;;4932840;28;20059;-87
2021/05/15 07:34:49;;;;;;;3.45;1.92;;;;;;;;;;4939513;28;20115;-89
2021/05/15 07:37:16;;;;;;;4.13;2.20;;;;;;;;;;4927480;28;20063;-89
2021/05/15 07:39:43;;;;;;;3.95;2.28;;;;;;;;;;4933122;28;20504;-89
2021/05/15 07:42:09;;;;;;;4.25;2.20;;;;;;;;;;4924880;28;20047;-89
2021/05/15 07:44:36;;;;;;;4.10;2.30;;;;;;;;;;4943974;28;20079;-89
2021/05/15 07:47:03;;;;;;;2.65;1.80;;;;;;;;;;4922199;28;20042;-89
2021/05/15 07:49:29;;;;;;;4.30;2.35;;;;;;;;;;4916438;28;20064;-89
2021/05/15 07:51:56;;;;;;;4.10;2.20;;;;;;;;;;4937565;28;20066;-91
2021/05/15 07:54:23;;;;;;;3.17;2.25;;;;;;;;;;4925965;28;20063;-89
2021/05/15 07:56:50;;;;;;;3.85;2.13;;;;;;;;;;4924245;28;20039;-89
2021/05/15 07:59:17;;;;;;;4.25;2.50;;;;;;;;;;4927049;28;20092;-90
2021/05/15 08:01:44;;;;;;;3.00;1.92;;;;;;;;;;4939578;28;20067;-89
2021/05/15 08:04:11;;;;;;;3.63;2.10;;;;;;;;;;4920047;28;20093;-89
2021/05/15 08:06:38;;;;;;;3.30;2.08;;;;;;;;;;4914661;28;20118;-90
2021/05/15 08:09:05;;;;;;;3.10;2.05;;;;;;;;;;4944388;28;20060;-90
2021/05/15 08:11:34;;;;;;;3.90;2.15;;;;;;;;;;4932198;28;20071;-89
2021/05/15 08:14:01;;;;;;;3.95;1.90;;;;;;;;;;4920614;29;20036;-89
2021/05/15 08:16:27;;;;;;;3.50;1.80;;;;;;;;;;4941131;28;20157;-88
2021/05/15 08:18:56;;;;;;;3.38;2.25;;;;;;;;;;4922813;28;20499;-89
2021/05/15 08:21:23;;;;;;;4.05;2.00;;;;;;;;;;4931056;28;20480;-89
2021/05/15 08:23:49;;;;;;;3.13;1.90;;;;;;;;;;4923823;28;20035;-89
2021/05/15 08:26:16;;;;;;;4.22;2.33;;;;;;;;;;4947262;28;20070;-89
2021/05/15 08:28:49;;;;;;;3.25;1.75;;;;;;;;;;4926045;28;20047;-89
2021/05/15 08:31:17;;;;;;;3.42;1.92;;;;;;;;;;4940089;28;20058;-89
2021/05/15 08:33:44;;;;;;;4.70;2.28;;;;;;;;;;4902752;28;20102;-90
2021/05/15 08:36:10;;;;;;;3.95;2.10;;;;;;;;;;4913700;28;20106;-90
2021/05/15 08:38:38;;;;;;;3.22;2.30;;;;;;;;;;4918806;28;20079;-89
2021/05/15 08:41:05;;;;;;;2.90;1.90;;;;;;;;;;4931959;28;20032;-88
2021/05/15 08:43:34;;;;;;;3.47;2.05;;;;;;;;;;4928647;28;20209;-89
2021/05/15 08:46:01;;;;;;;3.05;2.03;;;;;;;;;;4914209;28;20028;-89
2021/05/15 08:48:31;;;;;;;4.85;2.30;;;;;;;;;;4918136;28;20056;-89
2021/05/15 08:51:02;;;;;;;2.95;1.90;;;;;;;;;;4935895;28;20044;-89
2021/05/15 08:53:31;;;;;;;4.50;2.20;;;;;;;;;;4927936;28;20504;-89
2021/05/15 08:55:57;;;;;;;3.00;1.95;;;;;;;;;;4924517;28;20076;-88
2021/05/15 08:58:24;;;;;;;5.05;2.15;;;;;;;;;;4923613;28;20395;-89
2021/05/15 09:00:51;;;;;;;2.72;1.80;;;;;;;;;;4947135;28;20119;-89
2021/05/15 09:03:19;;;;;;;3.35;2.00;;;;;;;;;;4927591;28;20059;-88
2021/05/15 09:05:50;;;;;;;5.07;2.10;;;;;;;;;;4945676;28;20613;-89
2021/05/15 09:08:17;;;;;;;3.38;1.90;;;;;;;;;;4920799;28;20090;-89
2021/05/15 09:10:45;;;;;;;3.10;2.00;;;;;;;;;;4929442;28;20032;-89
2021/05/15 09:13:16;;;;;;;3.13;1.98;;;;;;;;;;4926326;28;20056;-89
2021/05/15 09:15:44;;;;;;;3.63;2.05;;;;;;;;;;4922306;28;20162;-89
2021/05/15 09:18:14;;;;;;;3.63;2.17;;;;;;;;;;4935146;28;20071;-89
2021/05/15 09:20:40;;;;;;;3.10;1.95;;;;;;;;;;4923262;28;20068;-88
2021/05/15 09:23:26;;;;;;;2.65;1.83;;;;;;;;;;4925157;28;20052;-88
2021/05/15 09:25:57;;;;;;;3.13;2.22;;;;;;;;;;4918616;28;20667;-90
2021/05/15 09:28:50;;;;;;;3.15;1.80;;;;;;;;;;4917486;28;20559;-88
2021/05/15 09:31:19;;;;;;;3.45;1.95;;;;;;;;;;4904919;29;20118;-88
2021/05/15 09:33:46;;;;;;;3.92;2.30;;;;;;;;;;4916815;28;20071;-88
2021/05/15 09:36:14;;;;;;;3.00;2.05;;;;;;;;;;4954526;28;20084;-89
2021/05/15 09:38:41;;;;;;;2.97;1.95;;;;;;;;;;4953372;28;20028;-89
2021/05/15 09:41:07;;;;;;;4.28;2.00;;;;;;;;;;4954613;28;20028;-89
2021/05/15 09:43:34;;;;;;;3.65;2.10;;;;;;;;;;4949134;28;20035;-88
2021/05/15 09:46:00;;;;;;;3.20;2.10;;;;;;;;;;4933384;29;20039;-89
2021/05/15 09:48:36;;;;;;;3.25;2.00;;;;;;;;;;4944650;28;20514;-88
2021/05/15 09:51:12;;;;;;;3.33;2.17;;;;;;;;;;4945786;28;20056;-88
2021/05/15 09:53:39;;;;;;;4.68;2.10;;;;;;;;;;4940026;28;20032;-88
2021/05/15 09:56:05;;;;;;;3.72;2.22;;;;;;;;;;4940891;28;20035;-88
2021/05/15 09:58:32;;;;;;;3.78;2.10;;;;;;;;;;4937039;28;20043;-89
2021/05/15 10:00:59;;;;;;;4.18;2.08;;;;;;;;;;4934762;28;20032;-88
2021/05/15 10:03:27;;;;;;;3.33;1.70;;;;;;;;;;4944382;28;20042;-88
2021/05/15 10:06:01;;;;;;;3.15;2.38;;;;;;;;;;4934853;28;20524;-89
2021/05/15 10:08:27;;;;;;;3.20;2.00;;;;;;;;;;4900465;28;20094;-88
2021/05/15 10:10:54;;;;;;;3.53;2.10;;;;;;;;;;4943056;28;20461;-89
2021/05/15 10:13:21;;;;;;;3.45;2.08;;;;;;;;;;4922832;28;20102;-89
2021/05/15 10:15:48;;;;;;;2.75;1.98;;;;;;;;;;4913980;28;20126;-88
2021/05/15 10:18:14;;;;;;;3.38;1.92;;;;;;;;;;4924882;28;20062;-89
2021/05/15 10:20:41;;;;;;;2.33;1.65;;;;;;;;;;4921333;28;20071;-89
2021/05/15 10:23:16;;;;;;;4.82;2.20;;;;;;;;;;4925407;29;20453;-89
2021/05/15 10:25:42;;;;;;;3.47;2.05;;;;;;;;;;4906708;28;20066;-88
2021/05/15 10:28:09;;;;;;;3.08;2.00;;;;;;;;;;4930530;28;20040;-88
2021/05/15 10:30:36;;;;;;;2.50;1.83;;;;;;;;;;4930770;28;20188;-88
2021/05/15 10:33:07;;;;;;;4.22;2.00;;;;;;;;;;4928327;28;20048;-88
2021/05/15 10:35:44;;;;;;;3.47;1.77;;;;;;;;;;4908940;28;20071;-89
2021/05/15 10:38:13;;;;;;;3.97;2.00;;;;;;;;;;4944577;28;20135;-88
2021/05/15 10:40:46;;;;;;;3.08;1.92;;;;;;;;;;4922452;28;20427;-88
2021/05/15 10:43:13;;;;;;;3.72;2.22;;;;;;;;;;4914108;28;20479;-89
2021/05/15 10:45:41;;;;;;;3.38;2.10;;;;;;;;;;4924195;28;20169;-89
2021/05/15 10:48:11;;;;;;;3.47;2.13;;;;;;;;;;4935015;28;20476;-89
2021/05/15 10:50:48;;;;;;;3.22;2.20;;;;;;;;;;4935067;28;20095;-89
2021/05/15 10:53:18;;;;;;;3.60;1.85;;;;;;;;;;4941616;28;20055;-88
2021/05/15 10:55:59;;;;;;;3.03;1.92;;;;;;;;;;4940077;28;20602;-89
2021/05/15 10:58:37;;;;;;;3.08;1.95;;;;;;;;;;4935121;28;20063;-89
2021/05/15 11:01:08;;;;;;;3.45;1.90;;;;;;;;;;4939984;28;20671;-89
2021/05/15 11:03:35;;;;;;;3.20;2.05;;;;;;;;;;4925184;28;20420;-89
2021/05/15 11:06:12;;;;;;;4.63;2.05;;;;;;;;;;4933721;28;20054;-89
2021/05/15 11:08:39;;;;;;;3.30;1.90;;;;;;;;;;4922383;28;20074;-90
2021/05/15 11:11:06;;;;;;;3.47;2.05;;;;;;;;;;4950297;28;20099;-89
2021/05/15 11:13:44;;;;;;;3.00;2.25;;;;;;;;;;4922306;28;20044;-88
2021/05/15 11:16:11;;;;;;;3.28;2.05;;;;;;;;;;4921834;28;20176;-89
2021/05/15 11:18:37;;;;;;;3.00;2.08;;;;;;;;;;4932189;28;20453;-89
2021/05/15 11:21:06;;;;;;;2.67;1.90;;;;;;;;;;4928224;28;20575;-88
2021/05/15 11:23:36;;;;;;;2.92;1.88;;;;;;;;;;4922932;28;20335;-89
2021/05/15 11:26:04;;;;;;;2.85;1.88;;;;;;;;;;4948569;28;20465;-89
2021/05/15 11:28:33;;;;;;;2.75;1.77;;;;;;;;;;4899832;28;20165;-88
2021/05/15 11:31:02;;;;;;;;;;;;;;;;;;4922848;28;20114;-89
2021/05/15 11:33:29;;;;;;;2.40;1.85;;;;;;;;;;4932816;28;20002;-87
2021/05/15 11:35:56;;;;;;;3.00;1.92;;;;;;;;;;4934549;28;20171;-89
2021/05/15 11:38:24;;;;;;;2.58;1.80;;;;;;;;;;4919588;28;20040;-88
2021/05/15 11:40:50;;;;;;;2.38;1.77;;;;;;;;;;4943865;28;20139;-89
2021/05/15 11:43:17;;;;;;;2.85;2.00;;;;;;;;;;4927061;28;20055;-89
2021/05/15 11:45:44;;;;;;;2.22;1.80;;;;;;;;;;4925404;28;20063;-89
2021/05/15 11:48:19;;;;;;;2.75;2.00;;;;;;;;;;4936304;28;20060;-89
2021/05/15 11:50:59;;;;;;;3.15;1.80;;;;;;;;;;4948676;28;20101;-88
2021/05/15 11:53:28;;;;;;;2.67;1.67;;;;;;;;;;4915806;28;20370;-90
2021/05/15 11:55:58;;;;;;;2.22;1.60;;;;;;;;;;4892337;28;20634;-88
2021/05/15 11:58:24;;;;;;;2.70;1.85;;;;;;;;;;4919031;28;20039;-89
2021/05/15 12:00:51;;;;;;;2.50;1.80;;;;;;;;;;4906592;29;20635;-89
2021/05/15 12:03:21;;;;;;;4.05;1.80;;;;;;;;;;4930392;28;20032;-89
2021/05/15 12:05:49;;;;;;;3.97;1.92;;;;;;;;;;4947831;28;20394;-89
2021/05/15 12:08:16;;;;;;;2.63;1.80;;;;;;;;;;4943978;28;20036;-89
2021/05/15 12:10:43;;;;;;;2.88;1.95;;;;;;;;;;4933242;28;20060;-90
2021/05/15 12:13:12;;;;;;;3.17;1.83;;;;;;;;;;4939117;28;20039;-89
2021/05/15 12:15:39;;;;;;;2.42;1.83;;;;;;;;;;4927123;28;20690;-89
2021/05/15 12:18:06;;;;;;;2.97;1.48;;;;;;;;;;4929308;29;20087;-88
2021/05/15 12:20:40;;;;;;;2.63;1.52;;;;;;;;;;4936324;28;20035;-89
2021/05/15 12:23:14;;;;;;;2.58;1.70;;;;;;;;;;4931426;29;20035;-88
2021/05/15 12:25:41;;;;;;;3.45;1.88;;;;;;;;;;4941638;28;20086;-89
2021/05/15 12:28:25;;;;;;;3.28;1.70;;;;;;;;;;4947116;28;20036;-88
2021/05/15 12:30:52;;;;;;;3.22;1.55;;;;;;;;;;4942966;28;20242;-90
2021/05/15 12:33:20;;;;;;;2.97;1.58;;;;;;;;;;4933841;28;20031;-89
2021/05/15 12:36:00;;;;;;;2.75;1.73;;;;;;;;;;4930207;28;20028;-89
2021/05/15 12:38:27;;;;;;;2.60;1.50;;;;;;;;;;4931004;28;20119;-88
2021/05/15 12:41:04;;;;;;;2.78;1.70;;;;;;;;;;4895806;29;20539;-88
2021/05/15 12:43:31;;;;;;;2.13;1.50;;;;;;;;;;4920113;28;20032;-88
2021/05/15 12:46:06;;;;;;;2.40;1.58;;;;;;;;;;4925683;28;20071;-89
2021/05/15 12:48:36;;;;;;;2.70;1.70;;;;;;;;;;4922701;28;20055;-89
2021/05/15 12:51:13;;;;;;;2.67;1.42;;;;;;;;;;4923644;28;20068;-90
2021/05/15 12:53:40;;;;;;;2.67;1.60;;;;;;;;;;4936544;28;20057;-88
2021/05/15 12:56:12;;;;;;;3.45;1.73;;;;;;;;;;4933633;28;20098;-89
2021/05/15 12:58:39;;;;;;;2.63;1.70;;;;;;;;;;4917018;28;20036;-89
2021/05/15 13:01:07;;;;;;;1.95;1.40;;;;;;;;;;4944622;28;20153;-89
2021/05/15 13:03:35;;;;;;;2.38;1.42;;;;;;;;;;4943638;28;20036;-89
2021/05/15 13:06:12;;;;;;;2.25;1.65;;;;;;;;;;4921117;29;20111;-87
2021/05/15 13:08:39;;;;;;;1.92;1.38;;;;;;;;;;4940907;28;20091;-90
2021/05/15 13:11:13;;;;;;;2.55;1.65;;;;;;;;;;4898857;29;20638;-88
2021/05/15 13:13:39;;;;;;;1.95;1.33;;;;;;;;;;4925060;28;20504;-89
2021/05/15 13:16:06;;;;;;;2.28;1.60;;;;;;;;;;4925321;28;20555;-89
2021/05/15 13:18:33;;;;;;;4.32;1.48;;;;;;;;;;4937830;28;20036;-88
2021/05/15 13:21:00;;;;;;;2.65;1.77;;;;;;;;;;4927839;29;20059;-90
2021/05/15 13:23:26;;;;;;;3.47;1.80;;;;;;;;;;4926200;28;20381;-89
2021/05/15 13:25:53;;;;;;;2.45;1.40;;;;;;;;;;4906741;29;20416;-89
2021/05/15 13:28:19;;;;;;;2.40;1.35;;;;;;;;;;4941354;28;20051;-89
2021/05/15 13:30:46;;;;;;;2.00;1.40;;;;;;;;;;4923503;28;20048;-89
2021/05/15 13:33:12;;;;;;;2.10;1.52;;;;;;;;;;4922915;28;20059;-89
2021/05/15 13:35:39;;;;;;;2.90;1.88;;;;;;;;;;4908659;28;20583;-88
2021/05/15 13:38:07;;;;;;;2.17;1.50;;;;;;;;;;4930008;28;20110;-91
2021/05/15 13:40:33;;;;;;;2.55;1.73;;;;;;;;;;4927455;28;20058;-90
2021/05/15 13:43:00;;;;;;;2.60;1.60;;;;;;;;;;4917287;28;20137;-89
2021/05/15 13:45:26;;;;;;;2.22;1.60;;;;;;;;;;4924078;28;20067;-89
2021/05/15 13:47:54;;;;;;;2.75;1.60;;;;;;;;;;4918037;28;20027;-89
2021/05/15 13:50:27;;;;;;;4.18;1.65;;;;;;;;;;4946080;28;20055;-86
2021/05/15 13:52:54;;;;;;;2.85;1.65;;;;;;;;;;4911031;29;20095;-86
2021/05/15 13:55:22;;;;;;;2.60;1.60;;;;;;;;;;4915718;28;20102;-88
2021/05/15 13:57:49;;;;;;;2.53;1.42;;;;;;;;;;4910717;29;20070;-87
2021/05/15 14:00:16;;;;;;;2.65;1.50;;;;;;;;;;4924223;28;20083;-88
2021/05/15 14:02:42;;;;;;;2.00;1.40;;;;;;;;;;4936682;28;20095;-88
2021/05/15 14:05:10;;;;;;;3.05;1.35;;;;;;;;;;4929135;28;20078;-88
2021/05/15 14:07:37;;;;;;;2.45;1.38;;;;;;;;;;4924722;28;20099;-88
2021/05/15 14:10:05;;;;;;;2.80;1.50;;;;;;;;;;4939278;28;20194;-89
2021/05/15 14:12:31;;;;;;;2.40;1.40;;;;;;;;;;4932636;28;20040;-89
2021/05/15 14:14:58;;;;;;;2.35;1.55;;;;;;;;;;4940848;28;20043;-88
2021/05/15 14:17:24;;;;;;;2.42;1.40;;;;;;;;;;4936925;28;20031;-87
2021/05/15 14:19:51;;;;;;;3.22;1.50;;;;;;;;;;4917513;28;20036;-88
2021/05/15 14:22:17;;;;;;;2.15;1.50;;;;;;;;;;4930116;28;20594;-88
2021/05/15 14:24:46;;;;;;;2.47;1.58;;;;;;;;;;4898992;28;20047;-89
2021/05/15 14:27:12;;;;;;;3.15;1.65;;;;;;;;;;4941187;28;20072;-89
2021/05/15 14:29:39;;;;;;;1.90;1.38;;;;;;;;;;4903168;28;20106;-89
2021/05/15 14:32:06;;;;;;;2.20;1.45;;;;;;;;;;4924016;28;20032;-88
2021/05/15 14:34:32;;;;;;;2.30;1.42;;;;;;;;;;4926331;28;20042;-89
2021/05/15 14:36:59;;;;;;;4.07;1.55;;;;;;;;;;4919271;28;20118;-88
2021/05/15 14:39:37;;;;;;;2.50;1.80;;;;;;;;;;4902035;28;20040;-90
2021/05/15 14:42:04;;;;;;;2.10;1.48;;;;;;;;;;4911882;29;20051;-89
2021/05/15 14:44:31;;;;;;;3.58;1.60;;;;;;;;;;4925295;28;20039;-90
2021/05/15 14:46:57;;;;;;;2.42;1.52;;;;;;;;;;4941216;28;20099;-89
2021/05/15 14:49:29;;;;;;;1.90;1.30;;;;;;;;;;4916030;28;20072;-90